VTCC/CNX METAR and TAF weather

Enter ICAO airport designator
Station Type Date Time Source
VTCC METAR 2022/11/27 08:30 UTC NOAA

VTCC 270830Z VRB05KT 9999 BKN035 30/22 Q1008 NOSIG


Station Type Date Time Source
VTCC Decoded METAR 2022/11/27 08:30 UTC NOAA

Chiang Mai, Thailand (VTCC) 18-47N 098-59E 314M
Nov 27, 2022 - 03:30 AM EST / 2022.11.27 0830 UTC
Wind: Variable at 6 MPH (5 KT):0
Visibility: greater than 7 mile(s):0
Sky conditions: mostly cloudy
Temperature: 86 F (30 C)
Heat index: 91.8 F (33.2 C):1
Dew Point: 71 F (22 C)
Relative Humidity: 62%
Pressure (altimeter): 29.77 in. Hg (1008 hPa)
ob: VTCC 270830Z VRB05KT 9999 BKN035 30/22 Q1008 NOSIG
cycle: 8

Station Type Date Time Source
VTCC TAF 2022/11/27 06:36 UTC NOAA

TAF VTCC 270500Z 2706/2812 18005KT 9999 SCT035
TEMPO 2708/2714 -TSRA FEW025CB BKN035
BECMG 2709/2711 27005KT
BECMG 2718/2720 36005KT
BECMG 2722/2724 19005KT

Example: see airport list